sensor_id;sensor_type;location;lat;lon;timestamp;P1;durP1;ratioP1;P2;durP2;ratioP2
3841;SDS011;1936;47.074;15.336;2024-03-25T00:00:18;3.03;;;2.60;;
3841;SDS011;1936;47.074;15.336;2024-03-25T00:02:21;2.58;;;2.35;;
3841;SDS011;1936;47.074;15.336;2024-03-25T00:04:24;2.67;;;2.35;;
3841;SDS011;1936;47.074;15.336;2024-03-25T00:06:26;2.42;;;2.22;;
3841;SDS011;1936;47.074;15.336;2024-03-25T00:08:28;3.38;;;3.13;;
3841;SDS011;1936;47.074;15.336;2024-03-25T00:10:30;3.42;;;3.05;;
3841;SDS011;1936;47.074;15.336;2024-03-25T00:12:34;2.95;;;2.72;;
3841;SDS011;1936;47.074;15.336;2024-03-25T00:14:35;2.65;;;2.40;;
3841;SDS011;1936;47.074;15.336;2024-03-25T00:16:39;1.15;;;1.05;;
3841;SDS011;1936;47.074;15.336;2024-03-25T00:18:41;2.38;;;1.95;;
3841;SDS011;1936;47.074;15.336;2024-03-25T00:20:44;4.68;;;2.13;;
3841;SDS011;1936;47.074;15.336;2024-03-25T00:22:45;2.53;;;2.30;;
3841;SDS011;1936;47.074;15.336;2024-03-25T00:24:48;2.83;;;2.10;;
3841;SDS011;1936;47.074;15.336;2024-03-25T00:26:49;2.05;;;1.63;;
3841;SDS011;1936;47.074;15.336;2024-03-25T00:28:53;2.40;;;1.98;;
3841;SDS011;1936;47.074;15.336;2024-03-25T00:30:54;2.50;;;1.70;;
3841;SDS011;1936;47.074;15.336;2024-03-25T00:32:57;2.53;;;1.85;;
3841;SDS011;1936;47.074;15.336;2024-03-25T00:34:58;2.85;;;1.38;;
3841;SDS011;1936;47.074;15.336;2024-03-25T00:37:00;2.17;;;1.35;;
3841;SDS011;1936;47.074;15.336;2024-03-25T00:39:02;3.38;;;1.38;;
3841;SDS011;1936;47.074;15.336;2024-03-25T00:41:05;2.53;;;1.52;;
3841;SDS011;1936;47.074;15.336;2024-03-25T00:43:07;1.70;;;1.60;;
3841;SDS011;1936;47.074;15.336;2024-03-25T00:45:11;1.70;;;1.38;;
3841;SDS011;1936;47.074;15.336;2024-03-25T00:47:13;1.95;;;1.30;;
3841;SDS011;1936;47.074;15.336;2024-03-25T00:49:15;2.10;;;1.45;;
3841;SDS011;1936;47.074;15.336;2024-03-25T00:51:16;2.28;;;1.38;;
3841;SDS011;1936;47.074;15.336;2024-03-25T00:53:18;5.43;;;1.45;;
3841;SDS011;1936;47.074;15.336;2024-03-25T00:55:20;1.35;;;1.20;;
3841;SDS011;1936;47.074;15.336;2024-03-25T00:57:23;1.35;;;1.25;;
3841;SDS011;1936;47.074;15.336;2024-03-25T00:59:24;1.17;;;1.00;;
3841;SDS011;1936;47.074;15.336;2024-03-25T01:01:28;1.40;;;1.30;;
3841;SDS011;1936;47.074;15.336;2024-03-25T01:03:29;1.35;;;0.80;;
3841;SDS011;1936;47.074;15.336;2024-03-25T01:05:32;1.30;;;1.20;;
3841;SDS011;1936;47.074;15.336;2024-03-25T01:07:34;2.55;;;1.33;;
3841;SDS011;1936;47.074;15.336;2024-03-25T01:09:36;1.90;;;1.45;;
3841;SDS011;1936;47.074;15.336;2024-03-25T01:11:37;2.88;;;1.25;;
3841;SDS011;1936;47.074;15.336;2024-03-25T01:13:40;4.75;;;1.17;;
3841;SDS011;1936;47.074;15.336;2024-03-25T01:15:42;4.00;;;1.23;;
3841;SDS011;1936;47.074;15.336;2024-03-25T01:17:45;1.40;;;1.10;;
3841;SDS011;1936;47.074;15.336;2024-03-25T01:19:47;1.20;;;1.10;;
3841;SDS011;1936;47.074;15.336;2024-03-25T01:21:49;1.38;;;1.27;;
3841;SDS011;1936;47.074;15.336;2024-03-25T01:23:50;1.77;;;1.55;;
3841;SDS011;1936;47.074;15.336;2024-03-25T01:25:53;1.95;;;1.17;;
3841;SDS011;1936;47.074;15.336;2024-03-25T01:27:54;2.15;;;0.80;;
3841;SDS011;1936;47.074;15.336;2024-03-25T01:29:57;1.35;;;1.15;;
3841;SDS011;1936;47.074;15.336;2024-03-25T01:31:58;1.42;;;1.20;;
3841;SDS011;1936;47.074;15.336;2024-03-25T01:34:04;1.30;;;0.95;;
3841;SDS011;1936;47.074;15.336;2024-03-25T01:36:06;1.23;;;0.93;;
3841;SDS011;1936;47.074;15.336;2024-03-25T01:38:09;1.70;;;1.00;;
3841;SDS011;1936;47.074;15.336;2024-03-25T01:40:10;1.35;;;1.13;;
3841;SDS011;1936;47.074;15.336;2024-03-25T01:42:13;0.60;;;0.60;;
3841;SDS011;1936;47.074;15.336;2024-03-25T01:44:15;0.82;;;0.80;;
3841;SDS011;1936;47.074;15.336;2024-03-25T01:46:17;1.27;;;1.10;;
3841;SDS011;1936;47.074;15.336;2024-03-25T01:48:22;0.93;;;0.82;;
3841;SDS011;1936;47.074;15.336;2024-03-25T01:50:26;1.27;;;0.88;;
3841;SDS011;1936;47.074;15.336;2024-03-25T01:52:27;1.05;;;0.95;;
3841;SDS011;1936;47.074;15.336;2024-03-25T01:54:30;1.33;;;0.90;;
3841;SDS011;1936;47.074;15.336;2024-03-25T01:56:32;1.30;;;1.05;;
3841;SDS011;1936;47.074;15.336;2024-03-25T01:58:36;2.20;;;1.10;;
3841;SDS011;1936;47.074;15.336;2024-03-25T02:00:38;1.45;;;0.98;;
3841;SDS011;1936;47.074;15.336;2024-03-25T02:02:41;1.20;;;0.95;;
3841;SDS011;1936;47.074;15.336;2024-03-25T02:04:44;1.70;;;1.13;;
3841;SDS011;1936;47.074;15.336;2024-03-25T02:06:48;1.05;;;0.90;;
3841;SDS011;1936;47.074;15.336;2024-03-25T02:08:51;1.10;;;1.00;;
3841;SDS011;1936;47.074;15.336;2024-03-25T02:10:55;1.08;;;0.88;;
3841;SDS011;1936;47.074;15.336;2024-03-25T02:12:58;1.10;;;1.00;;
3841;SDS011;1936;47.074;15.336;2024-03-25T02:15:00;1.83;;;1.10;;
3841;SDS011;1936;47.074;15.336;2024-03-25T02:17:02;0.90;;;0.80;;
3841;SDS011;1936;47.074;15.336;2024-03-25T02:19:06;1.30;;;0.90;;
3841;SDS011;1936;47.074;15.336;2024-03-25T02:21:08;1.45;;;0.90;;
3841;SDS011;1936;47.074;15.336;2024-03-25T02:23:12;0.90;;;0.70;;
3841;SDS011;1936;47.074;15.336;2024-03-25T02:25:14;1.70;;;1.20;;
3841;SDS011;1936;47.074;15.336;2024-03-25T02:27:20;0.80;;;0.80;;
3841;SDS011;1936;47.074;15.336;2024-03-25T02:29:22;1.10;;;1.00;;
3841;SDS011;1936;47.074;15.336;2024-03-25T02:31:25;1.05;;;0.70;;
3841;SDS011;1936;47.074;15.336;2024-03-25T02:33:26;2.35;;;1.35;;
3841;SDS011;1936;47.074;15.336;2024-03-25T02:35:28;1.05;;;0.90;;
3841;SDS011;1936;47.074;15.336;2024-03-25T02:37:30;0.95;;;0.75;;
3841;SDS011;1936;47.074;15.336;2024-03-25T02:39:34;1.40;;;1.17;;
3841;SDS011;1936;47.074;15.336;2024-03-25T02:41:35;1.65;;;1.15;;
3841;SDS011;1936;47.074;15.336;2024-03-25T02:43:39;1.23;;;0.90;;
3841;SDS011;1936;47.074;15.336;2024-03-25T02:45:41;1.52;;;0.80;;
3841;SDS011;1936;47.074;15.336;2024-03-25T02:47:43;2.00;;;1.20;;
3841;SDS011;1936;47.074;15.336;2024-03-25T02:49:46;1.40;;;1.25;;
3841;SDS011;1936;47.074;15.336;2024-03-25T02:51:49;2.08;;;0.88;;
3841;SDS011;1936;47.074;15.336;2024-03-25T02:53:50;1.48;;;1.00;;
3841;SDS011;1936;47.074;15.336;2024-03-25T02:55:52;1.48;;;1.38;;
3841;SDS011;1936;47.074;15.336;2024-03-25T02:57:54;1.15;;;0.90;;
3841;SDS011;1936;47.074;15.336;2024-03-25T02:59:58;1.80;;;1.00;;
3841;SDS011;1936;47.074;15.336;2024-03-25T03:01:59;0.75;;;0.70;;
3841;SDS011;1936;47.074;15.336;2024-03-25T03:04:02;1.98;;;1.13;;
3841;SDS011;1936;47.074;15.336;2024-03-25T03:06:04;0.93;;;0.80;;
3841;SDS011;1936;47.074;15.336;2024-03-25T03:08:06;1.30;;;1.10;;
3841;SDS011;1936;47.074;15.336;2024-03-25T03:10:08;1.65;;;1.15;;
3841;SDS011;1936;47.074;15.336;2024-03-25T03:12:11;2.80;;;1.00;;
3841;SDS011;1936;47.074;15.336;2024-03-25T03:14:13;0.82;;;0.73;;
3841;SDS011;1936;47.074;15.336;2024-03-25T03:16:17;0.98;;;0.90;;
3841;SDS011;1936;47.074;15.336;2024-03-25T03:18:18;3.08;;;0.70;;
3841;SDS011;1936;47.074;15.336;2024-03-25T03:20:20;1.00;;;0.90;;
3841;SDS011;1936;47.074;15.336;2024-03-25T03:22:22;2.42;;;0.90;;
3841;SDS011;1936;47.074;15.336;2024-03-25T03:24:24;1.10;;;0.90;;
3841;SDS011;1936;47.074;15.336;2024-03-25T03:26:26;2.15;;;1.30;;
3841;SDS011;1936;47.074;15.336;2024-03-25T03:28:28;1.23;;;0.75;;
3841;SDS011;1936;47.074;15.336;2024-03-25T03:30:29;1.10;;;1.00;;
3841;SDS011;1936;47.074;15.336;2024-03-25T03:32:33;0.73;;;0.73;;
3841;SDS011;1936;47.074;15.336;2024-03-25T03:34:34;1.65;;;1.30;;
3841;SDS011;1936;47.074;15.336;2024-03-25T03:36:37;0.60;;;0.50;;
3841;SDS011;1936;47.074;15.336;2024-03-25T03:38:38;0.95;;;0.77;;
3841;SDS011;1936;47.074;15.336;2024-03-25T03:40:40;1.65;;;0.70;;
3841;SDS011;1936;47.074;15.336;2024-03-25T03:42:41;1.05;;;0.80;;
3841;SDS011;1936;47.074;15.336;2024-03-25T03:44:44;1.15;;;0.85;;
3841;SDS011;1936;47.074;15.336;2024-03-25T03:46:45;3.00;;;1.00;;
3841;SDS011;1936;47.074;15.336;2024-03-25T03:48:49;2.60;;;0.73;;
3841;SDS011;1936;47.074;15.336;2024-03-25T03:50:50;1.15;;;0.90;;
3841;SDS011;1936;47.074;15.336;2024-03-25T03:52:53;0.82;;;0.75;;
3841;SDS011;1936;47.074;15.336;2024-03-25T03:54:54;1.00;;;0.90;;
3841;SDS011;1936;47.074;15.336;2024-03-25T03:56:57;1.75;;;0.70;;
3841;SDS011;1936;47.074;15.336;2024-03-25T03:58:58;1.40;;;1.27;;
3841;SDS011;1936;47.074;15.336;2024-03-25T04:01:01;2.78;;;0.90;;
3841;SDS011;1936;47.074;15.336;2024-03-25T04:03:04;2.00;;;1.10;;
3841;SDS011;1936;47.074;15.336;2024-03-25T04:05:08;1.63;;;1.40;;
3841;SDS011;1936;47.074;15.336;2024-03-25T04:07:10;2.55;;;1.42;;
3841;SDS011;1936;47.074;15.336;2024-03-25T04:09:11;1.70;;;1.60;;
3841;SDS011;1936;47.074;15.336;2024-03-25T04:11:14;1.40;;;1.20;;
3841;SDS011;1936;47.074;15.336;2024-03-25T04:13:15;1.42;;;1.08;;
3841;SDS011;1936;47.074;15.336;2024-03-25T04:15:18;3.13;;;1.45;;
3841;SDS011;1936;47.074;15.336;2024-03-25T04:17:19;2.45;;;1.25;;
3841;SDS011;1936;47.074;15.336;2024-03-25T04:19:23;1.23;;;0.90;;
3841;SDS011;1936;47.074;15.336;2024-03-25T04:21:26;1.83;;;1.23;;
3841;SDS011;1936;47.074;15.336;2024-03-25T04:23:28;1.25;;;1.15;;
3841;SDS011;1936;47.074;15.336;2024-03-25T04:25:30;1.60;;;1.10;;
3841;SDS011;1936;47.074;15.336;2024-03-25T04:27:33;3.45;;;1.30;;
3841;SDS011;1936;47.074;15.336;2024-03-25T04:29:35;1.15;;;0.95;;
3841;SDS011;1936;47.074;15.336;2024-03-25T04:31:37;2.17;;;1.77;;
3841;SDS011;1936;47.074;15.336;2024-03-25T04:33:39;2.33;;;1.30;;
3841;SDS011;1936;47.074;15.336;2024-03-25T04:35:42;1.33;;;1.23;;
3841;SDS011;1936;47.074;15.336;2024-03-25T04:37:45;1.50;;;1.17;;
3841;SDS011;1936;47.074;15.336;2024-03-25T04:39:47;1.98;;;1.75;;
3841;SDS011;1936;47.074;15.336;2024-03-25T04:41:48;2.95;;;1.23;;
3841;SDS011;1936;47.074;15.336;2024-03-25T04:43:49;1.58;;;1.48;;
3841;SDS011;1936;47.074;15.336;2024-03-25T04:45:51;2.10;;;1.45;;
3841;SDS011;1936;47.074;15.336;2024-03-25T04:47:52;1.60;;;1.50;;
3841;SDS011;1936;47.074;15.336;2024-03-25T04:49:54;1.70;;;1.60;;
3841;SDS011;1936;47.074;15.336;2024-03-25T04:51:55;2.72;;;1.90;;
3841;SDS011;1936;47.074;15.336;2024-03-25T04:53:58;2.35;;;2.00;;
3841;SDS011;1936;47.074;15.336;2024-03-25T04:56:00;1.92;;;1.80;;
3841;SDS011;1936;47.074;15.336;2024-03-25T04:58:01;2.08;;;1.45;;
3841;SDS011;1936;47.074;15.336;2024-03-25T05:00:04;2.80;;;1.83;;
3841;SDS011;1936;47.074;15.336;2024-03-25T05:02:06;1.55;;;1.45;;
3841;SDS011;1936;47.074;15.336;2024-03-25T05:04:07;2.40;;;1.90;;
3841;SDS011;1936;47.074;15.336;2024-03-25T05:06:09;2.33;;;2.13;;
3841;SDS011;1936;47.074;15.336;2024-03-25T05:08:10;2.40;;;2.20;;
3841;SDS011;1936;47.074;15.336;2024-03-25T05:10:13;1.77;;;1.55;;
3841;SDS011;1936;47.074;15.336;2024-03-25T05:12:15;2.42;;;2.00;;
3841;SDS011;1936;47.074;15.336;2024-03-25T05:14:16;1.73;;;1.60;;
3841;SDS011;1936;47.074;15.336;2024-03-25T05:16:18;2.90;;;1.90;;
3841;SDS011;1936;47.074;15.336;2024-03-25T05:18:19;3.45;;;1.88;;
3841;SDS011;1936;47.074;15.336;2024-03-25T05:20:21;2.17;;;1.80;;
3841;SDS011;1936;47.074;15.336;2024-03-25T05:22:22;2.97;;;2.22;;
3841;SDS011;1936;47.074;15.336;2024-03-25T05:24:23;2.28;;;2.05;;
3841;SDS011;1936;47.074;15.336;2024-03-25T05:26:26;2.28;;;2.08;;
3841;SDS011;1936;47.074;15.336;2024-03-25T05:28:28;2.95;;;2.63;;
3841;SDS011;1936;47.074;15.336;2024-03-25T05:30:29;2.38;;;1.85;;
3841;SDS011;1936;47.074;15.336;2024-03-25T05:32:31;2.80;;;2.25;;
3841;SDS011;1936;47.074;15.336;2024-03-25T05:34:32;3.83;;;2.70;;
3841;SDS011;1936;47.074;15.336;2024-03-25T05:36:34;8.68;;;2.60;;
3841;SDS011;1936;47.074;15.336;2024-03-25T05:38:35;2.35;;;2.15;;
3841;SDS011;1936;47.074;15.336;2024-03-25T05:40:36;2.72;;;2.53;;
3841;SDS011;1936;47.074;15.336;2024-03-25T05:42:39;2.90;;;2.20;;
3841;SDS011;1936;47.074;15.336;2024-03-25T05:44:41;2.95;;;2.53;;
3841;SDS011;1936;47.074;15.336;2024-03-25T05:46:42;2.42;;;2.22;;
3841;SDS011;1936;47.074;15.336;2024-03-25T05:48:44;2.45;;;2.25;;
3841;SDS011;1936;47.074;15.336;2024-03-25T05:50:45;2.20;;;2.00;;
3841;SDS011;1936;47.074;15.336;2024-03-25T05:52:47;4.93;;;2.50;;
3841;SDS011;1936;47.074;15.336;2024-03-25T05:54:49;2.05;;;1.85;;
3841;SDS011;1936;47.074;15.336;2024-03-25T05:56:50;10.15;;;9.20;;
3841;SDS011;1936;47.074;15.336;2024-03-25T05:58:53;12.98;;;10.02;;
3841;SDS011;1936;47.074;15.336;2024-03-25T06:00:54;11.40;;;8.35;;
3841;SDS011;1936;47.074;15.336;2024-03-25T06:02:56;5.85;;;5.18;;
3841;SDS011;1936;47.074;15.336;2024-03-25T06:04:57;5.00;;;4.00;;
3841;SDS011;1936;47.074;15.336;2024-03-25T06:06:59;9.02;;;6.78;;
3841;SDS011;1936;47.074;15.336;2024-03-25T06:09:00;8.45;;;6.80;;
3841;SDS011;1936;47.074;15.336;2024-03-25T06:11:02;8.85;;;6.88;;
3841;SDS011;1936;47.074;15.336;2024-03-25T06:13:04;7.75;;;5.10;;
3841;SDS011;1936;47.074;15.336;2024-03-25T06:15:08;7.20;;;6.40;;
3841;SDS011;1936;47.074;15.336;2024-03-25T06:17:09;7.53;;;6.72;;
3841;SDS011;1936;47.074;15.336;2024-03-25T06:19:11;6.80;;;5.93;;
3841;SDS011;1936;47.074;15.336;2024-03-25T06:21:12;11.02;;;6.55;;
3841;SDS011;1936;47.074;15.336;2024-03-25T06:23:23;8.65;;;6.25;;
3841;SDS011;1936;47.074;15.336;2024-03-25T06:25:25;6.80;;;6.18;;
3841;SDS011;1936;47.074;15.336;2024-03-25T06:27:27;6.60;;;5.10;;
3841;SDS011;1936;47.074;15.336;2024-03-25T06:29:28;5.72;;;4.55;;
3841;SDS011;1936;47.074;15.336;2024-03-25T06:31:31;6.43;;;5.45;;
3841;SDS011;1936;47.074;15.336;2024-03-25T06:33:52;6.30;;;3.30;;
3841;SDS011;1936;47.074;15.336;2024-03-25T06:36:12;4.40;;;3.50;;
3841;SDS011;1936;47.074;15.336;2024-03-25T06:38:13;4.93;;;4.53;;
3841;SDS011;1936;47.074;15.336;2024-03-25T06:40:15;8.73;;;3.60;;
3841;SDS011;1936;47.074;15.336;2024-03-25T06:42:16;3.17;;;2.87;;
3841;SDS011;1936;47.074;15.336;2024-03-25T06:44:18;4.83;;;2.93;;
3841;SDS011;1936;47.074;15.336;2024-03-25T06:46:20;3.20;;;2.80;;
3841;SDS011;1936;47.074;15.336;2024-03-25T06:48:23;4.23;;;2.00;;
3841;SDS011;1936;47.074;15.336;2024-03-25T06:50:24;2.23;;;2.03;;
3841;SDS011;1936;47.074;15.336;2024-03-25T06:52:26;2.67;;;1.40;;
3841;SDS011;1936;47.074;15.336;2024-03-25T06:54:29;2.03;;;1.93;;
3841;SDS011;1936;47.074;15.336;2024-03-25T06:56:30;4.43;;;2.07;;
3841;SDS011;1936;47.074;15.336;2024-03-25T06:58:32;2.80;;;2.60;;
3841;SDS011;1936;47.074;15.336;2024-03-25T07:00:34;2.97;;;2.63;;
3841;SDS011;1936;47.074;15.336;2024-03-25T07:02:35;3.17;;;2.57;;
3841;SDS011;1936;47.074;15.336;2024-03-25T07:04:39;3.10;;;2.40;;
3841;SDS011;1936;47.074;15.336;2024-03-25T07:06:40;2.50;;;2.20;;
3841;SDS011;1936;47.074;15.336;2024-03-25T07:08:41;3.90;;;2.40;;
3841;SDS011;1936;47.074;15.336;2024-03-25T07:10:43;2.33;;;2.07;;
3841;SDS011;1936;47.074;15.336;2024-03-25T07:12:45;2.00;;;1.80;;
3841;SDS011;1936;47.074;15.336;2024-03-25T07:14:46;4.17;;;2.40;;
3841;SDS011;1936;47.074;15.336;2024-03-25T07:16:47;1.87;;;1.73;;
3841;SDS011;1936;47.074;15.336;2024-03-25T07:18:49;2.47;;;1.97;;
3841;SDS011;1936;47.074;15.336;2024-03-25T07:20:52;1.73;;;1.50;;
3841;SDS011;1936;47.074;15.336;2024-03-25T07:22:54;3.33;;;1.30;;
3841;SDS011;1936;47.074;15.336;2024-03-25T07:24:55;2.60;;;1.10;;
3841;SDS011;1936;47.074;15.336;2024-03-25T07:26:57;1.53;;;1.20;;
3841;SDS011;1936;47.074;15.336;2024-03-25T07:28:58;1.30;;;0.80;;
3841;SDS011;1936;47.074;15.336;2024-03-25T07:31:00;4.10;;;1.20;;
3841;SDS011;1936;47.074;15.336;2024-03-25T07:33:01;4.83;;;0.80;;
3841;SDS011;1936;47.074;15.336;2024-03-25T07:35:03;1.07;;;0.70;;
3841;SDS011;1936;47.074;15.336;2024-03-25T07:37:07;2.03;;;0.90;;
3841;SDS011;1936;47.074;15.336;2024-03-25T07:39:09;1.00;;;0.60;;
3841;SDS011;1936;47.074;15.336;2024-03-25T07:41:10;2.10;;;0.90;;
3841;SDS011;1936;47.074;15.336;2024-03-25T07:43:13;1.83;;;0.60;;
3841;SDS011;1936;47.074;15.336;2024-03-25T07:45:15;1.17;;;0.90;;
3841;SDS011;1936;47.074;15.336;2024-03-25T07:47:17;0.77;;;0.57;;
3841;SDS011;1936;47.074;15.336;2024-03-25T07:49:19;1.37;;;1.10;;
3841;SDS011;1936;47.074;15.336;2024-03-25T07:51:20;1.57;;;0.80;;
3841;SDS011;1936;47.074;15.336;2024-03-25T07:53:23;2.23;;;0.80;;
3841;SDS011;1936;47.074;15.336;2024-03-25T07:55:25;1.13;;;0.70;;
3841;SDS011;1936;47.074;15.336;2024-03-25T07:57:26;1.00;;;0.70;;
3841;SDS011;1936;47.074;15.336;2024-03-25T07:59:28;1.57;;;1.13;;
3841;SDS011;1936;47.074;15.336;2024-03-25T08:01:29;1.97;;;0.80;;
3841;SDS011;1936;47.074;15.336;2024-03-25T08:03:31;1.37;;;0.90;;
3841;SDS011;1936;47.074;15.336;2024-03-25T08:05:33;0.90;;;0.90;;
3841;SDS011;1936;47.074;15.336;2024-03-25T08:07:34;1.13;;;0.63;;
3841;SDS011;1936;47.074;15.336;2024-03-25T08:09:37;0.90;;;0.73;;
3841;SDS011;1936;47.074;15.336;2024-03-25T08:11:39;1.80;;;0.67;;
3841;SDS011;1936;47.074;15.336;2024-03-25T08:13:40;0.90;;;0.57;;
3841;SDS011;1936;47.074;15.336;2024-03-25T08:15:42;0.80;;;0.70;;
3841;SDS011;1936;47.074;15.336;2024-03-25T08:17:43;0.87;;;0.53;;
3841;SDS011;1936;47.074;15.336;2024-03-25T08:19:45;1.07;;;0.50;;
3841;SDS011;1936;47.074;15.336;2024-03-25T08:21:46;1.07;;;0.70;;
3841;SDS011;1936;47.074;15.336;2024-03-25T08:23:48;1.40;;;0.60;;
3841;SDS011;1936;47.074;15.336;2024-03-25T08:25:50;0.93;;;0.60;;
3841;SDS011;1936;47.074;15.336;2024-03-25T08:27:52;0.67;;;0.57;;
3841;SDS011;1936;47.074;15.336;2024-03-25T08:29:53;0.70;;;0.50;;
3841;SDS011;1936;47.074;15.336;2024-03-25T08:31:55;2.70;;;0.60;;
3841;SDS011;1936;47.074;15.336;2024-03-25T08:33:56;1.00;;;0.80;;
3841;SDS011;1936;47.074;15.336;2024-03-25T08:35:58;1.00;;;0.50;;
3841;SDS011;1936;47.074;15.336;2024-03-25T08:37:59;0.70;;;0.50;;
3841;SDS011;1936;47.074;15.336;2024-03-25T08:40:01;0.97;;;0.67;;
3841;SDS011;1936;47.074;15.336;2024-03-25T08:42:05;0.70;;;0.43;;
3841;SDS011;1936;47.074;15.336;2024-03-25T08:44:06;0.73;;;0.50;;
3841;SDS011;1936;47.074;15.336;2024-03-25T08:46:07;1.80;;;0.60;;
3841;SDS011;1936;47.074;15.336;2024-03-25T08:48:09;0.70;;;0.50;;
3841;SDS011;1936;47.074;15.336;2024-03-25T08:50:11;0.57;;;0.37;;
3841;SDS011;1936;47.074;15.336;2024-03-25T08:52:12;0.60;;;0.37;;
3841;SDS011;1936;47.074;15.336;2024-03-25T08:54:14;0.77;;;0.60;;
3841;SDS011;1936;47.074;15.336;2024-03-25T08:56:16;0.60;;;0.50;;
3841;SDS011;1936;47.074;15.336;2024-03-25T08:58:19;0.77;;;0.50;;
3841;SDS011;1936;47.074;15.336;2024-03-25T09:00:21;1.97;;;0.50;;
3841;SDS011;1936;47.074;15.336;2024-03-25T09:02:22;0.67;;;0.40;;
3841;SDS011;1936;47.074;15.336;2024-03-25T09:04:24;0.83;;;0.50;;
3841;SDS011;1936;47.074;15.336;2024-03-25T09:06:25;0.70;;;0.50;;
3841;SDS011;1936;47.074;15.336;2024-03-25T09:08:28;0.70;;;0.40;;
3841;SDS011;1936;47.074;15.336;2024-03-25T09:10:29;2.17;;;0.70;;
3841;SDS011;1936;47.074;15.336;2024-03-25T09:12:49;0.80;;;0.47;;
3841;SDS011;1936;47.074;15.336;2024-03-25T09:14:53;0.90;;;0.60;;
3841;SDS011;1936;47.074;15.336;2024-03-25T09:16:55;0.90;;;0.50;;
3841;SDS011;1936;47.074;15.336;2024-03-25T09:18:56;0.70;;;0.30;;
3841;SDS011;1936;47.074;15.336;2024-03-25T09:20:57;0.70;;;0.50;;
3841;SDS011;1936;47.074;15.336;2024-03-25T09:22:59;0.60;;;0.40;;
3841;SDS011;1936;47.074;15.336;2024-03-25T09:25:00;0.70;;;0.50;;
3841;SDS011;1936;47.074;15.336;2024-03-25T09:27:02;1.00;;;0.50;;
3841;SDS011;1936;47.074;15.336;2024-03-25T09:29:04;0.60;;;0.40;;
3841;SDS011;1936;47.074;15.336;2024-03-25T09:31:07;1.47;;;0.50;;
3841;SDS011;1936;47.074;15.336;2024-03-25T09:33:08;1.10;;;0.50;;
3841;SDS011;1936;47.074;15.336;2024-03-25T09:35:10;1.73;;;0.50;;
3841;SDS011;1936;47.074;15.336;2024-03-25T09:37:12;0.93;;;0.70;;
3841;SDS011;1936;47.074;15.336;2024-03-25T09:39:13;3.73;;;1.53;;
3841;SDS011;1936;47.074;15.336;2024-03-25T09:41:15;2.87;;;1.77;;
3841;SDS011;1936;47.074;15.336;2024-03-25T09:43:19;2.43;;;1.80;;
3841;SDS011;1936;47.074;15.336;2024-03-25T09:45:24;3.90;;;1.60;;
3841;SDS011;1936;47.074;15.336;2024-03-25T09:47:27;4.40;;;1.40;;
3841;SDS011;1936;47.074;15.336;2024-03-25T09:49:29;1.37;;;0.90;;
3841;SDS011;1936;47.074;15.336;2024-03-25T09:51:32;2.53;;;1.37;;
3841;SDS011;1936;47.074;15.336;2024-03-25T09:53:34;1.40;;;1.03;;
3841;SDS011;1936;47.074;15.336;2024-03-25T09:55:36;1.87;;;1.10;;
3841;SDS011;1936;47.074;15.336;2024-03-25T09:57:37;1.27;;;0.80;;
3841;SDS011;1936;47.074;15.336;2024-03-25T09:59:39;0.93;;;0.80;;
3841;SDS011;1936;47.074;15.336;2024-03-25T10:01:41;1.23;;;0.80;;
3841;SDS011;1936;47.074;15.336;2024-03-25T10:03:44;1.10;;;0.90;;
3841;SDS011;1936;47.074;15.336;2024-03-25T10:05:46;1.77;;;0.80;;
3841;SDS011;1936;47.074;15.336;2024-03-25T10:07:47;1.90;;;0.73;;
3841;SDS011;1936;47.074;15.336;2024-03-25T10:09:50;4.60;;;0.93;;
3841;SDS011;1936;47.074;15.336;2024-03-25T10:11:51;0.80;;;0.73;;
3841;SDS011;1936;47.074;15.336;2024-03-25T10:13:53;0.97;;;0.60;;
3841;SDS011;1936;47.074;15.336;2024-03-25T10:15:54;1.30;;;0.70;;
3841;SDS011;1936;47.074;15.336;2024-03-25T10:17:56;1.13;;;0.57;;
3841;SDS011;1936;47.074;15.336;2024-03-25T10:19:59;2.60;;;0.67;;
3841;SDS011;1936;47.074;15.336;2024-03-25T10:22:01;1.93;;;0.97;;
3841;SDS011;1936;47.074;15.336;2024-03-25T10:24:04;1.00;;;0.70;;
3841;SDS011;1936;47.074;15.336;2024-03-25T10:26:06;0.70;;;0.63;;
3841;SDS011;1936;47.074;15.336;2024-03-25T10:28:08;3.10;;;0.80;;
3841;SDS011;1936;47.074;15.336;2024-03-25T10:30:10;0.90;;;0.70;;
3841;SDS011;1936;47.074;15.336;2024-03-25T10:32:16;0.70;;;0.43;;
3841;SDS011;1936;47.074;15.336;2024-03-25T10:34:17;1.80;;;0.57;;
3841;SDS011;1936;47.074;15.336;2024-03-25T10:36:21;0.70;;;0.57;;
3841;SDS011;1936;47.074;15.336;2024-03-25T10:38:24;1.00;;;0.70;;
3841;SDS011;1936;47.074;15.336;2024-03-25T10:40:27;0.70;;;0.50;;
3841;SDS011;1936;47.074;15.336;2024-03-25T10:42:30;1.10;;;0.63;;
3841;SDS011;1936;47.074;15.336;2024-03-25T10:44:32;0.70;;;0.53;;
3841;SDS011;1936;47.074;15.336;2024-03-25T10:46:34;0.70;;;0.50;;
3841;SDS011;1936;47.074;15.336;2024-03-25T10:48:37;2.80;;;0.60;;
3841;SDS011;1936;47.074;15.336;2024-03-25T10:50:41;0.90;;;0.80;;
3841;SDS011;1936;47.074;15.336;2024-03-25T10:52:45;0.90;;;0.70;;
3841;SDS011;1936;47.074;15.336;2024-03-25T10:54:47;3.03;;;0.60;;
3841;SDS011;1936;47.074;15.336;2024-03-25T10:56:48;1.03;;;0.50;;
3841;SDS011;1936;47.074;15.336;2024-03-25T10:58:50;0.83;;;0.57;;
3841;SDS011;1936;47.074;15.336;2024-03-25T11:00:52;1.40;;;0.77;;
3841;SDS011;1936;47.074;15.336;2024-03-25T11:02:56;0.97;;;0.60;;
3841;SDS011;1936;47.074;15.336;2024-03-25T11:04:59;1.00;;;0.60;;
3841;SDS011;1936;47.074;15.336;2024-03-25T11:07:07;0.70;;;0.60;;
3841;SDS011;1936;47.074;15.336;2024-03-25T11:09:10;1.10;;;0.50;;
3841;SDS011;1936;47.074;15.336;2024-03-25T11:11:28;0.80;;;0.70;;
3841;SDS011;1936;47.074;15.336;2024-03-25T11:13:32;1.10;;;0.60;;
3841;SDS011;1936;47.074;15.336;2024-03-25T11:15:35;0.60;;;0.50;;
3841;SDS011;1936;47.074;15.336;2024-03-25T11:17:47;0.80;;;0.50;;
3841;SDS011;1936;47.074;15.336;2024-03-25T11:19:49;0.70;;;0.50;;
3841;SDS011;1936;47.074;15.336;2024-03-25T11:21:51;0.83;;;0.60;;
3841;SDS011;1936;47.074;15.336;2024-03-25T11:23:53;0.90;;;0.60;;
3841;SDS011;1936;47.074;15.336;2024-03-25T11:25:56;0.90;;;0.60;;
3841;SDS011;1936;47.074;15.336;2024-03-25T11:27:58;1.00;;;0.90;;
3841;SDS011;1936;47.074;15.336;2024-03-25T11:29:59;0.97;;;0.60;;
3841;SDS011;1936;47.074;15.336;2024-03-25T11:32:03;1.23;;;0.70;;
3841;SDS011;1936;47.074;15.336;2024-03-25T11:34:05;0.97;;;0.60;;
3841;SDS011;1936;47.074;15.336;2024-03-25T11:36:07;0.90;;;0.50;;
3841;SDS011;1936;47.074;15.336;2024-03-25T11:38:10;1.07;;;0.63;;
3841;SDS011;1936;47.074;15.336;2024-03-25T11:40:12;1.63;;;0.90;;
3841;SDS011;1936;47.074;15.336;2024-03-25T11:42:16;0.80;;;0.57;;
3841;SDS011;1936;47.074;15.336;2024-03-25T11:44:17;1.00;;;0.60;;
3841;SDS011;1936;47.074;15.336;2024-03-25T11:46:19;0.80;;;0.60;;
3841;SDS011;1936;47.074;15.336;2024-03-25T11:48:20;0.80;;;0.50;;
3841;SDS011;1936;47.074;15.336;2024-03-25T11:50:22;0.70;;;0.50;;
3841;SDS011;1936;47.074;15.336;2024-03-25T11:52:23;1.83;;;0.47;;
3841;SDS011;1936;47.074;15.336;2024-03-25T11:54:29;1.10;;;0.60;;
3841;SDS011;1936;47.074;15.336;2024-03-25T11:56:31;1.10;;;0.50;;
3841;SDS011;1936;47.074;15.336;2024-03-25T11:58:34;0.80;;;0.57;;
3841;SDS011;1936;47.074;15.336;2024-03-25T12:00:35;0.70;;;0.50;;
3841;SDS011;1936;47.074;15.336;2024-03-25T12:02:44;1.13;;;0.60;;
3841;SDS011;1936;47.074;15.336;2024-03-25T12:04:47;1.13;;;0.60;;
3841;SDS011;1936;47.074;15.336;2024-03-25T12:06:49;1.00;;;0.60;;
3841;SDS011;1936;47.074;15.336;2024-03-25T12:08:50;0.77;;;0.60;;
3841;SDS011;1936;47.074;15.336;2024-03-25T12:11:06;0.70;;;0.50;;
3841;SDS011;1936;47.074;15.336;2024-03-25T12:13:20;1.10;;;0.60;;
3841;SDS011;1936;47.074;15.336;2024-03-25T12:15:23;1.53;;;0.50;;
3841;SDS011;1936;47.074;15.336;2024-03-25T12:17:25;1.40;;;0.77;;
3841;SDS011;1936;47.074;15.336;2024-03-25T12:19:27;0.60;;;0.40;;
3841;SDS011;1936;47.074;15.336;2024-03-25T12:21:30;1.37;;;0.70;;
3841;SDS011;1936;47.074;15.336;2024-03-25T12:23:32;0.80;;;0.57;;
3841;SDS011;1936;47.074;15.336;2024-03-25T12:25:34;2.20;;;0.60;;
3841;SDS011;1936;47.074;15.336;2024-03-25T12:27:36;0.70;;;0.50;;